createdAt,value
2022-08-02T00:00:58.920Z,6.40
2022-08-02T00:06:01.565Z,6.00
2022-08-02T00:11:04.296Z,7.03
2022-08-02T00:16:08.635Z,8.33
2022-08-02T00:21:11.666Z,3.80
2022-08-02T00:26:14.356Z,8.63
2022-08-02T00:31:18.280Z,6.83
2022-08-02T00:36:21.248Z,4.43
2022-08-02T00:41:24.031Z,8.50
2022-08-02T00:46:28.073Z,5.60
2022-08-02T00:51:30.711Z,6.40
2022-08-02T00:56:33.546Z,11.47
2022-08-02T01:01:56.675Z,6.03
2022-08-02T01:07:00.767Z,5.33
2022-08-02T01:12:03.338Z,3.47
2022-08-02T01:17:10.880Z,5.77
2022-08-02T01:22:34.659Z,3.33
2022-08-02T01:27:55.929Z,4.00
2022-08-02T01:33:02.688Z,13.47
2022-08-02T01:38:10.352Z,3.97
2022-08-02T01:43:14.108Z,9.03
2022-08-02T01:48:18.940Z,5.60
2022-08-02T01:53:25.217Z,9.53
2022-08-02T01:58:31.950Z,6.43
2022-08-02T02:03:41.584Z,8.73
2022-08-02T02:08:45.639Z,5.73
2022-08-02T02:13:50.119Z,4.57
2022-08-02T02:18:55.585Z,4.50
2022-08-02T02:23:59.401Z,5.30
2022-08-02T02:29:03.947Z,5.33
2022-08-02T02:34:12.115Z,7.10
2022-08-02T02:39:16.371Z,8.77
2022-08-02T02:44:21.499Z,5.30
2022-08-02T02:49:26.978Z,6.90
2022-08-02T02:54:34.068Z,5.83
2022-08-02T02:59:48.901Z,3.87
2022-08-02T03:04:58.076Z,7.90
2022-08-02T03:10:01.053Z,5.07
2022-08-02T03:15:08.127Z,7.50
2022-08-02T03:20:14.618Z,3.00
2022-08-02T03:25:18.662Z,3.00
2022-08-02T03:30:24.559Z,4.30
2022-08-02T03:35:28.807Z,4.70
2022-08-02T03:40:32.624Z,6.67
2022-08-02T03:45:35.505Z,5.47
2022-08-02T03:50:40.995Z,4.03
2022-08-02T03:55:43.822Z,9.77
2022-08-02T04:00:46.866Z,6.43
2022-08-02T04:06:04.037Z,4.27
2022-08-02T04:11:26.003Z,6.47
2022-08-02T04:16:35.325Z,4.87
2022-08-02T04:21:50.240Z,6.73
2022-08-02T04:26:57.984Z,5.80
2022-08-02T04:32:09.941Z,3.33
2022-08-02T04:37:14.818Z,4.90
2022-08-02T04:42:21.757Z,5.10
2022-08-02T04:48:01.903Z,4.50
2022-08-02T04:52:48.710Z,7.00
2022-08-02T04:57:58.027Z,3.33
2022-08-02T05:03:01.319Z,9.03
2022-08-02T05:08:05.758Z,4.80
2022-08-02T05:13:08.371Z,5.73
2022-08-02T05:18:12.269Z,4.00
2022-08-02T05:23:17.201Z,7.50
2022-08-02T05:28:20.114Z,5.53
2022-08-02T05:33:22.708Z,10.87
2022-08-02T05:38:28.502Z,8.17
2022-08-02T05:43:32.166Z,8.63
2022-08-02T05:48:35.910Z,15.20
2022-08-02T05:53:47.616Z,8.17
2022-08-02T05:58:54.059Z,12.07
2022-08-02T06:04:00.927Z,12.10
2022-08-02T06:09:09.977Z,11.50
2022-08-02T06:14:13.105Z,9.80
2022-08-02T06:19:18.217Z,12.70
2022-08-02T06:24:23.580Z,15.10
2022-08-02T06:29:27.187Z,13.57
2022-08-02T06:34:29.828Z,14.33
2022-08-02T06:39:40.602Z,17.20
2022-08-02T06:44:48.089Z,11.80
2022-08-02T06:49:54.598Z,15.57
2022-08-02T06:55:00.061Z,15.33
2022-08-02T07:00:07.103Z,19.93
2022-08-02T07:05:10.597Z,10.60
2022-08-02T07:10:15.564Z,9.33
2022-08-02T07:15:18.144Z,12.20
2022-08-02T07:20:20.712Z,8.93
2022-08-02T07:25:25.245Z,15.03
2022-08-02T07:30:47.880Z,16.13
2022-08-02T07:35:50.571Z,9.63
2022-08-02T07:40:55.314Z,11.17
2022-08-02T07:46:01.069Z,9.60
2022-08-02T07:51:03.878Z,10.07
2022-08-02T07:56:07.978Z,8.03
2022-08-02T08:01:10.690Z,6.80
2022-08-02T08:06:13.341Z,9.53
2022-08-02T08:11:17.297Z,7.53
2022-08-02T08:16:20.405Z,7.33
2022-08-02T08:21:23.233Z,8.50
2022-08-02T08:26:27.238Z,8.33
2022-08-02T08:31:29.836Z,4.80
2022-08-02T08:36:32.536Z,5.03
2022-08-02T08:41:38.572Z,5.57
2022-08-02T08:46:44.300Z,8.10
2022-08-02T08:51:47.079Z,6.50
2022-08-02T08:56:53.571Z,5.73
2022-08-02T09:01:57.026Z,5.10
2022-08-02T09:06:59.617Z,8.87
2022-08-02T09:12:15.764Z,8.13
2022-08-02T09:17:21.765Z,7.00
2022-08-02T09:22:24.673Z,7.13
2022-08-02T09:27:28.641Z,5.60
2022-08-02T09:32:44.811Z,4.23
2022-08-02T09:37:48.744Z,4.30
2022-08-02T09:43:00.459Z,4.67
2022-08-02T09:48:03.665Z,5.00
2022-08-02T09:53:07.199Z,5.83
2022-08-02T09:58:21.065Z,3.63
2022-08-02T10:03:26.750Z,3.90
2022-08-02T10:08:37.693Z,3.40
2022-08-02T10:13:41.634Z,7.63
2022-08-02T10:18:44.890Z,3.37
2022-08-02T10:23:50.395Z,5.70
2022-08-02T10:28:55.135Z,5.80
2022-08-02T10:34:00.986Z,3.80
2022-08-02T10:39:03.893Z,4.17
2022-08-02T10:44:07.846Z,5.00
2022-08-02T10:49:42.664Z,2.67
2022-08-02T10:54:50.799Z,4.20
2022-08-02T11:00:17.336Z,4.07
2022-08-02T11:05:42.987Z,6.60
2022-08-02T11:10:46.324Z,3.50
2022-08-02T11:16:01.156Z,4.17
2022-08-02T11:21:23.721Z,6.07
2022-08-02T11:26:46.302Z,6.40
2022-08-02T11:31:50.498Z,3.90
2022-08-02T11:36:54.337Z,5.80
2022-08-02T11:41:58.812Z,2.47
2022-08-02T11:47:04.411Z,3.43
2022-08-02T11:52:11.111Z,4.33
2022-08-02T11:57:20.299Z,2.80
2022-08-02T12:02:28.913Z,2.37
2022-08-02T12:07:35.007Z,3.40
2022-08-02T12:12:49.072Z,3.63
2022-08-02T12:18:10.906Z,4.00
2022-08-02T12:23:14.446Z,4.10
2022-08-02T12:28:20.330Z,3.20
2022-08-02T12:33:26.881Z,5.90
2022-08-02T12:38:29.713Z,2.40
2022-08-02T12:43:32.754Z,6.43
2022-08-02T12:48:40.449Z,2.43
2022-08-02T12:53:59.550Z,4.77
2022-08-02T12:59:02.981Z,3.20
2022-08-02T13:04:13.644Z,4.83
2022-08-02T13:09:17.861Z,3.30
2022-08-02T13:14:20.917Z,2.73
2022-08-02T13:19:24.852Z,3.63
2022-08-02T13:24:39.597Z,3.77
2022-08-02T13:29:50.870Z,2.20
2022-08-02T13:34:54.856Z,3.93
2022-08-02T13:40:19.154Z,8.30
2022-08-02T13:45:20.100Z,3.20
2022-08-02T13:50:24.970Z,3.00
2022-08-02T13:55:28.429Z,2.50
2022-08-02T14:00:34.214Z,4.43
2022-08-02T14:05:47.235Z,2.87
2022-08-02T14:10:52.482Z,3.20
2022-08-02T14:15:55.155Z,2.73
2022-08-02T14:20:59.206Z,2.20
2022-08-02T14:26:01.811Z,2.37
2022-08-02T14:31:04.665Z,2.47
2022-08-02T14:36:13.387Z,2.87
2022-08-02T14:41:20.554Z,2.23
2022-08-02T14:46:24.281Z,8.53
2022-08-02T14:51:28.450Z,1.87
2022-08-02T14:56:31.237Z,3.37
2022-08-02T15:01:34.060Z,2.17
2022-08-02T15:06:38.809Z,4.47
2022-08-02T15:11:47.020Z,3.57
2022-08-02T15:16:59.108Z,4.17
2022-08-02T15:22:03.342Z,1.80
2022-08-02T15:27:10.195Z,3.50
2022-08-02T15:32:13.575Z,1.93
2022-08-02T15:37:17.854Z,2.70
2022-08-02T15:42:20.876Z,2.70
2022-08-02T15:47:33.129Z,3.63
2022-08-02T15:52:37.523Z,2.57
2022-08-02T15:57:40.222Z,2.03
2022-08-02T16:02:42.984Z,4.53
2022-08-02T16:07:47.546Z,6.37
2022-08-02T16:12:50.245Z,2.30
2022-08-02T16:17:53.998Z,4.13
2022-08-02T16:22:59.076Z,2.60
2022-08-02T16:28:08.183Z,2.07
2022-08-02T16:33:11.318Z,2.17
2022-08-02T16:38:15.267Z,2.67
2022-08-02T16:43:19.934Z,4.60
2022-08-02T16:48:23.607Z,6.93
2022-08-02T16:53:36.603Z,4.77
2022-08-02T16:58:39.508Z,1.40
2022-08-02T17:03:56.550Z,2.50
2022-08-02T17:09:02.011Z,4.40
2022-08-02T17:14:04.613Z,4.07
2022-08-02T17:19:07.441Z,3.47
2022-08-02T17:24:11.406Z,2.53
2022-08-02T17:29:17.690Z,2.07
2022-08-02T17:34:26.984Z,5.23
2022-08-02T17:39:34.304Z,3.20
2022-08-02T17:44:45.993Z,4.13
2022-08-02T17:49:53.510Z,2.07
2022-08-02T17:54:57.561Z,2.67
2022-08-02T18:00:03.707Z,2.17
2022-08-02T18:05:11.882Z,4.40
2022-08-02T18:10:19.207Z,3.53
2022-08-02T18:15:22.847Z,8.73
2022-08-02T18:20:25.662Z,2.30
2022-08-02T18:25:36.822Z,4.00
2022-08-02T18:30:46.745Z,2.43
2022-08-02T18:35:51.085Z,4.10
2022-08-02T18:40:55.124Z,8.57
2022-08-02T18:46:05.287Z,1.83
2022-08-02T18:51:10.040Z,2.70
2022-08-02T18:56:20.339Z,2.90
2022-08-02T19:01:31.857Z,9.53
2022-08-02T19:06:36.121Z,4.63
2022-08-02T19:11:41.444Z,6.23
2022-08-02T19:16:50.812Z,7.77
2022-08-02T19:27:25.639Z,3.07
2022-08-02T19:32:41.531Z,4.97
2022-08-02T19:37:51.484Z,2.40
2022-08-02T19:44:20.896Z,4.37
2022-08-02T19:48:23.866Z,3.97
2022-08-02T19:53:28.556Z,3.07
2022-08-02T19:58:36.592Z,3.97
2022-08-02T20:03:51.325Z,3.40
2022-08-02T20:08:57.095Z,5.77
2022-08-02T20:14:03.710Z,2.73
2022-08-02T20:19:08.033Z,4.50
2022-08-02T20:24:10.705Z,7.60
2022-08-02T20:29:14.655Z,4.40
2022-08-02T20:34:17.298Z,6.63
2022-08-02T20:39:21.950Z,4.70
2022-08-02T20:50:03.047Z,4.30
2022-08-02T20:55:08.072Z,3.03
2022-08-02T21:00:23.377Z,2.70
2022-08-02T21:05:26.738Z,4.43
2022-08-02T21:10:51.942Z,5.70
2022-08-02T21:16:07.873Z,5.53
2022-08-02T21:21:11.672Z,3.00
2022-08-02T21:26:19.905Z,3.23
2022-08-02T21:31:32.002Z,5.60
2022-08-02T21:36:38.680Z,4.63
2022-08-02T21:47:11.122Z,7.53
2022-08-02T21:52:15.495Z,4.90
2022-08-02T21:57:19.697Z,6.63
2022-08-02T22:02:30.518Z,3.70
2022-08-02T22:07:38.313Z,4.03
2022-08-02T22:12:41.364Z,4.00
2022-08-02T22:17:53.011Z,3.43
2022-08-02T22:23:12.802Z,4.47
2022-08-02T22:28:38.825Z,3.30
2022-08-02T22:34:00.227Z,3.67
2022-08-02T22:39:05.879Z,4.10
2022-08-02T22:44:22.239Z,7.60
2022-08-02T22:49:38.226Z,6.30
2022-08-02T22:54:46.949Z,3.93
2022-08-02T22:58:59.153Z,2.60
2022-08-02T22:59:03.343Z,5.97
2022-08-02T22:59:08.077Z,6.17
2022-08-02T22:59:49.519Z,5.90
2022-08-02T23:04:53.632Z,3.73
2022-08-02T23:09:56.265Z,5.00
2022-08-02T23:14:59.070Z,3.70
2022-08-02T23:20:03.184Z,3.20
2022-08-02T23:25:08.414Z,8.73
2022-08-02T23:30:11.560Z,4.63
2022-08-02T23:35:17.277Z,3.53
2022-08-02T23:40:39.572Z,3.83
2022-08-02T23:45:44.420Z,4.60
2022-08-02T23:50:48.480Z,8.90
2022-08-02T23:55:51.205Z,3.80
